createdAt,value
2019-02-20T00:00:42.866Z,97672.07
2019-02-20T00:03:14.651Z,97677.63
2019-02-20T00:05:46.490Z,97674.67
2019-02-20T00:08:17.858Z,97680.28
2019-02-20T00:10:49.775Z,97680.91
2019-02-20T00:13:21.718Z,97676.68
2019-02-20T00:15:53.228Z,97681.81
2019-02-20T00:18:25.106Z,97676.11
2019-02-20T00:20:56.566Z,97678.47
2019-02-20T00:23:27.931Z,97684.10
2019-02-20T00:25:59.569Z,97681.00
2019-02-20T00:28:31.002Z,97679.86
2019-02-20T00:31:02.413Z,97686.89
2019-02-20T00:33:33.691Z,97690.77
2019-02-20T00:36:05.206Z,97691.47
2019-02-20T00:38:36.602Z,97692.68
2019-02-20T00:41:07.975Z,97679.86
2019-02-20T00:43:41.412Z,97687.92
2019-02-20T00:46:21.135Z,97693.44
2019-02-20T00:49:11.518Z,97691.58
2019-02-20T00:51:56.263Z,97685.42
2019-02-20T00:54:27.704Z,97682.83
2019-02-20T00:56:59.061Z,97683.80
2019-02-20T00:59:30.542Z,97689.13
2019-02-20T01:02:01.866Z,97688.81
2019-02-20T01:04:33.575Z,97687.34
2019-02-20T01:07:05.173Z,97685.81
2019-02-20T01:09:36.597Z,97679.69
2019-02-20T01:12:08.021Z,97688.29
2019-02-20T01:14:39.613Z,97683.91
2019-02-20T01:17:10.991Z,97685.19
2019-02-20T01:19:42.613Z,97690.26
2019-02-20T01:22:14.386Z,97684.74
2019-02-20T01:24:45.621Z,97690.87
2019-02-20T01:27:17.090Z,97691.16
2019-02-20T01:29:48.554Z,97689.63
2019-02-20T01:32:19.960Z,97693.89
2019-02-20T01:34:51.932Z,97682.36
2019-02-20T01:37:23.341Z,97686.97
2019-02-20T01:39:54.866Z,97684.77
2019-02-20T01:42:26.245Z,97684.15
2019-02-20T01:44:58.167Z,97692.64
2019-02-20T01:47:29.513Z,97690.87
2019-02-20T01:50:00.883Z,97697.97
2019-02-20T01:52:32.496Z,97690.82
2019-02-20T01:55:04.151Z,97688.40
2019-02-20T01:57:35.539Z,97679.93
2019-02-20T02:00:09.189Z,97685.00
2019-02-20T02:02:40.723Z,97673.71
2019-02-20T02:05:15.199Z,97682.27
2019-02-20T02:07:45.687Z,97673.84
2019-02-20T02:10:17.573Z,97672.43
2019-02-20T02:12:48.993Z,97674.34
2019-02-20T02:15:20.906Z,97668.76
2019-02-20T02:17:52.368Z,97683.97
2019-02-20T02:20:23.810Z,97676.59
2019-02-20T02:22:55.305Z,97673.98
2019-02-20T02:25:26.814Z,97674.63
2019-02-20T02:27:58.590Z,97678.09
2019-02-20T02:30:30.087Z,97674.78
2019-02-20T02:33:02.319Z,97674.02
2019-02-20T02:35:33.919Z,97678.55
2019-02-20T02:38:05.288Z,97672.53
2019-02-20T02:40:37.051Z,97671.19
2019-02-20T02:43:08.551Z,97678.09
2019-02-20T02:45:40.028Z,97672.84
2019-02-20T02:48:11.716Z,97674.69
2019-02-20T02:50:43.349Z,97682.13
2019-02-20T02:53:15.049Z,97684.86
2019-02-20T02:55:46.878Z,97680.86
2019-02-20T02:58:18.462Z,97675.80
2019-02-20T03:00:50.074Z,97673.98
2019-02-20T03:03:21.813Z,97677.14
2019-02-20T03:05:53.247Z,97675.03
2019-02-20T03:08:25.101Z,97682.86
2019-02-20T03:10:56.914Z,97673.03
2019-02-20T03:13:28.241Z,97676.91
2019-02-20T03:16:00.006Z,97687.34
2019-02-20T03:18:31.446Z,97679.52
2019-02-20T03:21:03.015Z,97675.75
2019-02-20T03:23:40.260Z,97680.40
2019-02-20T03:26:07.394Z,97674.33
2019-02-20T03:28:40.211Z,97681.66
2019-02-20T03:31:11.846Z,97676.93
2019-02-20T03:33:43.154Z,97676.77
2019-02-20T03:36:15.201Z,97685.43
2019-02-20T03:38:46.664Z,97688.05
2019-02-20T03:41:18.181Z,97687.16
2019-02-20T03:43:49.518Z,97683.23
2019-02-20T03:46:20.879Z,97686.63
2019-02-20T03:48:52.272Z,97693.28
2019-02-20T03:51:24.144Z,97696.50
2019-02-20T03:53:56.090Z,97692.02
2019-02-20T03:56:28.278Z,97708.06
2019-02-20T03:59:00.565Z,97702.77
2019-02-20T04:01:32.194Z,97694.84
2019-02-20T04:04:03.910Z,97690.22
2019-02-20T04:06:35.651Z,97698.78
2019-02-20T04:09:07.828Z,97702.88
2019-02-20T04:11:39.312Z,97702.41
2019-02-20T04:14:11.010Z,97701.94
2019-02-20T04:16:42.497Z,97700.89
2019-02-20T04:19:13.983Z,97706.15
2019-02-20T04:21:45.534Z,97703.06
2019-02-20T04:24:16.938Z,97706.77
2019-02-20T04:26:48.491Z,97702.30
2019-02-20T04:29:20.585Z,97698.87
2019-02-20T04:31:51.960Z,97698.60
2019-02-20T04:34:23.359Z,97708.47
2019-02-20T04:36:54.799Z,97709.45
2019-02-20T04:39:26.294Z,97707.82
2019-02-20T04:41:57.741Z,97710.73
2019-02-20T04:44:29.217Z,97705.57
2019-02-20T04:47:01.009Z,97710.03
2019-02-20T04:49:32.716Z,97707.78
2019-02-20T04:52:04.271Z,97703.30
2019-02-20T04:54:35.484Z,97702.92
2019-02-20T04:57:07.041Z,97712.84
2019-02-20T04:59:38.536Z,97712.36
2019-02-20T05:02:10.296Z,97718.82
2019-02-20T05:04:41.586Z,97718.02
2019-02-20T05:07:13.348Z,97722.70
2019-02-20T05:09:44.838Z,97722.70
2019-02-20T05:12:17.988Z,97722.70
2019-02-20T05:14:49.329Z,97729.41
2019-02-20T05:17:20.759Z,97719.78
2019-02-20T05:19:52.201Z,97729.69
2019-02-20T05:22:23.668Z,97732.50
2019-02-20T05:24:54.935Z,97720.66
2019-02-20T05:27:26.359Z,97723.14
2019-02-20T05:29:57.824Z,97704.52
2019-02-20T05:32:29.179Z,97707.25
2019-02-20T05:35:00.710Z,97710.27
2019-02-20T05:37:33.299Z,97717.98
2019-02-20T05:40:05.302Z,97728.24
2019-02-20T05:42:36.758Z,97721.05
2019-02-20T05:45:08.242Z,97715.99
2019-02-20T05:47:39.664Z,97727.06
2019-02-20T05:50:11.666Z,97726.84
2019-02-20T05:52:43.111Z,97725.38
2019-02-20T05:55:14.560Z,97730.59
2019-02-20T05:57:46.337Z,97728.61
2019-02-20T06:00:17.803Z,97731.36
2019-02-20T06:02:50.045Z,97729.73
2019-02-20T06:05:21.527Z,97736.08
2019-02-20T06:07:53.052Z,97738.22
2019-02-20T06:10:24.426Z,97739.48
2019-02-20T06:12:55.933Z,97738.41
2019-02-20T06:15:27.391Z,97753.88
2019-02-20T06:17:59.043Z,97753.98
2019-02-20T06:20:30.757Z,97761.19
2019-02-20T06:23:02.072Z,97755.64
2019-02-20T06:25:33.587Z,97751.72
2019-02-20T06:28:05.143Z,97757.75
2019-02-20T06:30:36.409Z,97754.70
2019-02-20T06:33:07.819Z,97758.59
2019-02-20T06:35:39.243Z,97755.81
2019-02-20T06:38:11.460Z,97763.80
2019-02-20T06:40:43.173Z,97772.85
2019-02-20T06:43:15.170Z,97780.47
2019-02-20T06:45:46.617Z,97783.06
2019-02-20T06:48:18.400Z,97794.36
2019-02-20T06:50:49.863Z,97787.61
2019-02-20T06:53:22.104Z,97789.53
2019-02-20T06:55:53.619Z,97790.28
2019-02-20T06:58:25.031Z,97791.28
2019-02-20T07:00:56.977Z,97794.05
2019-02-20T07:03:29.454Z,97801.61
2019-02-20T07:06:48.475Z,97797.34
2019-02-20T07:10:17.500Z,97795.67
2019-02-20T07:13:27.988Z,97799.30
2019-02-20T07:17:00.178Z,97801.98
2019-02-20T07:19:52.037Z,97787.80
2019-02-20T07:23:09.668Z,97805.06
2019-02-20T07:26:04.568Z,97810.88
2019-02-20T07:29:43.869Z,97810.29
2019-02-20T07:32:19.025Z,97817.89
2019-02-20T07:34:50.568Z,97813.55
2019-02-20T07:37:22.086Z,97818.27
2019-02-20T07:39:53.466Z,97817.77
2019-02-20T07:42:24.957Z,97815.88
2019-02-20T07:44:56.621Z,97812.80
2019-02-20T07:47:28.200Z,97815.48
2019-02-20T07:49:59.547Z,97822.63
2019-02-20T07:52:30.941Z,97813.17
2019-02-20T07:55:02.335Z,97812.31
2019-02-20T07:57:34.852Z,97805.77
2019-02-20T08:00:08.588Z,97814.93
2019-02-20T08:02:40.227Z,97810.69
2019-02-20T08:05:11.821Z,97812.25
2019-02-20T08:07:43.469Z,97813.72
2019-02-20T08:10:15.117Z,97817.12
2019-02-20T08:12:46.565Z,97810.05
2019-02-20T08:15:17.980Z,97821.17
2019-02-20T08:17:49.760Z,97809.72
2019-02-20T08:20:21.212Z,97812.83
2019-02-20T08:22:52.530Z,97810.59
2019-02-20T08:25:23.769Z,97813.48
2019-02-20T08:27:55.210Z,97815.15
2019-02-20T08:30:26.784Z,97821.02
2019-02-20T08:32:58.253Z,97818.28
2019-02-20T08:35:29.591Z,97816.31
2019-02-20T08:38:01.010Z,97809.83
2019-02-20T08:40:32.265Z,97818.87
2019-02-20T08:43:03.875Z,97811.14
2019-02-20T08:45:36.236Z,97818.12
2019-02-20T08:48:07.632Z,97816.34
2019-02-20T08:50:39.052Z,97818.20
2019-02-20T08:53:10.483Z,97815.44
2019-02-20T08:55:41.957Z,97819.75
2019-02-20T08:58:13.488Z,97822.34
2019-02-20T09:00:45.112Z,97819.24
2019-02-20T09:03:17.962Z,97824.97
2019-02-20T09:05:49.708Z,97824.17
2019-02-20T09:08:21.278Z,97822.31
2019-02-20T09:10:53.327Z,97819.09
2019-02-20T09:13:25.015Z,97824.62
2019-02-20T09:15:56.773Z,97816.41
2019-02-20T09:18:28.733Z,97817.03
2019-02-20T09:21:00.290Z,97823.84
2019-02-20T09:23:33.271Z,97815.98
2019-02-20T09:26:05.114Z,97821.48
2019-02-20T09:28:38.019Z,97820.22
2019-02-20T09:31:09.660Z,97821.67
2019-02-20T09:33:41.315Z,97826.09
2019-02-20T09:36:13.005Z,97833.99
2019-02-20T09:38:44.831Z,97837.34
2019-02-20T09:41:16.362Z,97829.06
2019-02-20T09:43:49.371Z,97827.28
2019-02-20T09:46:21.033Z,97835.15
2019-02-20T09:48:52.550Z,97838.13
2019-02-20T09:51:24.278Z,97838.55
2019-02-20T09:53:55.891Z,97841.83
2019-02-20T09:56:27.715Z,97839.52
2019-02-20T09:58:59.429Z,97843.70
2019-02-20T10:01:32.192Z,97841.27
2019-02-20T10:04:03.833Z,97841.72
2019-02-20T10:06:35.601Z,97837.94
2019-02-20T10:09:07.465Z,97845.36
2019-02-20T10:11:40.016Z,97846.44
2019-02-20T10:14:11.635Z,97859.41
2019-02-20T10:16:43.233Z,97850.80
2019-02-20T10:19:15.528Z,97855.13
2019-02-20T10:21:47.365Z,97851.99
2019-02-20T10:24:19.146Z,97858.11
2019-02-20T10:26:50.887Z,97855.27
2019-02-20T10:29:22.745Z,97850.45
2019-02-20T10:31:54.391Z,97848.66
2019-02-20T10:34:26.239Z,97855.45
2019-02-20T10:36:58.258Z,97846.44
2019-02-20T10:39:30.190Z,97850.66
2019-02-20T10:42:01.964Z,97857.59
2019-02-20T10:44:33.731Z,97858.53
2019-02-20T10:47:05.657Z,97860.69
2019-02-20T10:49:37.199Z,97860.89
2019-02-20T10:52:08.839Z,97869.63
2019-02-20T10:54:40.487Z,97868.27
2019-02-20T10:57:12.103Z,97870.31
2019-02-20T10:59:44.054Z,97864.23
2019-02-20T11:02:16.203Z,97865.20
2019-02-20T11:04:50.164Z,97869.41
2019-02-20T11:07:22.088Z,97862.11
2019-02-20T11:09:53.919Z,97865.59
2019-02-20T11:12:25.648Z,97863.77
2019-02-20T11:14:57.877Z,97859.72
2019-02-20T11:17:29.730Z,97856.06
2019-02-20T11:20:01.780Z,97861.03
2019-02-20T11:22:34.424Z,97860.50
2019-02-20T11:25:06.944Z,97857.51
2019-02-20T11:27:39.721Z,97854.05
2019-02-20T11:30:15.455Z,97844.41
2019-02-20T11:32:47.008Z,97838.05
2019-02-20T11:35:18.849Z,97838.70
2019-02-20T11:37:50.895Z,97834.33
2019-02-20T11:40:22.692Z,97833.72
2019-02-20T11:42:54.334Z,97831.04
2019-02-20T11:45:26.542Z,97835.69
2019-02-20T11:47:58.073Z,97816.08
2019-02-20T11:50:30.155Z,97826.61
2019-02-20T11:53:01.857Z,97831.24
2019-02-20T11:55:33.628Z,97831.80
2019-02-20T11:58:05.394Z,97833.97
2019-02-20T12:00:37.045Z,97826.28
2019-02-20T12:03:08.814Z,97823.59
2019-02-20T12:05:40.870Z,97831.17
2019-02-20T12:08:12.716Z,97830.38
2019-02-20T12:10:44.694Z,97820.86
2019-02-20T12:13:16.797Z,97831.80
2019-02-20T12:15:48.620Z,97826.63
2019-02-20T12:18:20.504Z,97829.90
2019-02-20T12:20:52.279Z,97826.43
2019-02-20T12:23:24.334Z,97819.50
2019-02-20T12:25:56.097Z,97822.35
2019-02-20T12:28:27.803Z,97821.24
2019-02-20T12:30:59.457Z,97815.02
2019-02-20T12:33:31.039Z,97819.77
2019-02-20T12:36:02.895Z,97814.95
2019-02-20T12:38:34.505Z,97812.78
2019-02-20T12:41:06.327Z,97816.23
2019-02-20T12:43:37.865Z,97817.81
2019-02-20T12:46:09.575Z,97816.05
2019-02-20T12:48:41.415Z,97825.55
2019-02-20T12:51:13.074Z,97825.73
2019-02-20T12:53:46.120Z,97824.11
2019-02-20T12:56:17.769Z,97827.06
2019-02-20T12:58:49.360Z,97822.44
2019-02-20T13:01:21.084Z,97825.30
2019-02-20T13:03:52.727Z,97820.84
2019-02-20T13:06:24.488Z,97814.67
2019-02-20T13:08:56.264Z,97818.60
2019-02-20T13:11:27.917Z,97818.59
2019-02-20T13:13:59.674Z,97818.93
2019-02-20T13:16:31.267Z,97821.02
2019-02-20T13:19:02.874Z,97816.30
2019-02-20T13:21:34.844Z,97811.62
2019-02-20T13:24:07.447Z,97810.44
2019-02-20T13:26:39.101Z,97811.36
2019-02-20T13:29:11.018Z,97811.95
